createdAt,value
2022-12-18T00:09:22.851Z,95
2022-12-18T00:19:23.904Z,95
2022-12-18T00:29:24.315Z,94
2022-12-18T00:39:24.955Z,95
2022-12-18T00:49:25.580Z,96
2022-12-18T00:59:25.822Z,95
2022-12-18T01:09:26.508Z,95
2022-12-18T01:19:26.976Z,95
2022-12-18T01:29:27.839Z,95
2022-12-18T01:39:28.437Z,95
2022-12-18T01:49:29.063Z,94
2022-12-18T01:59:30.192Z,95
2022-12-18T02:19:31.445Z,94
2022-12-18T02:29:32.013Z,94
2022-12-18T02:39:32.932Z,94
2022-12-18T02:49:33.980Z,95
2022-12-18T03:09:35.659Z,95
2022-12-18T03:19:35.881Z,94
2022-12-18T03:29:36.971Z,94
2022-12-18T04:19:39.666Z,94
2022-12-18T04:39:40.483Z,94
2022-12-18T04:49:41.278Z,94
2022-12-18T04:59:42.134Z,94
2022-12-18T05:09:43.239Z,94
2022-12-18T05:19:44.190Z,93
2022-12-18T05:29:44.354Z,93
2022-12-18T05:39:45.155Z,93
2022-12-18T05:49:45.506Z,93
2022-12-18T05:59:46.013Z,93
2022-12-18T06:19:47.737Z,94
2022-12-18T06:29:48.369Z,93
2022-12-18T06:39:48.673Z,93
2022-12-18T06:49:48.822Z,93
2022-12-18T06:59:49.791Z,93
2022-12-18T07:09:50.253Z,93
2022-12-18T07:19:50.847Z,93
2022-12-18T07:29:51.933Z,92
2022-12-18T07:39:52.566Z,93
2022-12-18T07:49:53.561Z,93
2022-12-18T07:59:54.078Z,92
2022-12-18T08:09:54.509Z,90
2022-12-18T08:19:54.963Z,89
2022-12-18T08:29:55.171Z,90
2022-12-18T08:39:55.971Z,90
2022-12-18T08:49:56.452Z,90
2022-12-18T08:59:57.145Z,90
2022-12-18T09:09:57.375Z,89
2022-12-18T09:19:58.072Z,89
2022-12-18T09:29:58.747Z,89
2022-12-18T09:39:59.682Z,89
2022-12-18T09:50:00.248Z,89
2022-12-18T10:00:00.404Z,90
2022-12-18T10:10:01.185Z,91
2022-12-18T10:20:01.565Z,90
2022-12-18T10:30:02.596Z,90
2022-12-18T10:40:03.127Z,90
2022-12-18T10:50:03.490Z,90
2022-12-18T11:00:04.273Z,89
2022-12-18T11:10:04.361Z,90
2022-12-18T11:20:05.013Z,90
2022-12-18T11:22:43.397Z,90
2022-12-18T11:30:14.012Z,90
2022-12-18T11:40:14.712Z,89
2022-12-18T11:50:15.545Z,89
2022-12-18T12:00:15.853Z,87
2022-12-18T12:10:16.060Z,78
2022-12-18T12:20:16.190Z,78
2022-12-18T12:30:17.249Z,78
2022-12-18T12:40:49.041Z,79
2022-12-18T12:50:18.633Z,83
2022-12-18T13:00:18.848Z,84
2022-12-18T13:10:19.354Z,85
2022-12-18T13:20:19.352Z,85
2022-12-18T13:30:19.877Z,86
2022-12-18T13:40:20.171Z,86
2022-12-18T13:50:20.880Z,87
2022-12-18T14:00:21.135Z,87
2022-12-18T14:20:22.482Z,87
2022-12-18T14:40:23.770Z,85
2022-12-18T14:50:24.652Z,83
2022-12-18T15:00:24.963Z,85
2022-12-18T15:10:25.422Z,88
2022-12-18T15:20:26.216Z,88
2022-12-18T15:30:26.607Z,87
2022-12-18T15:40:27.096Z,88
2022-12-18T15:50:27.979Z,89
2022-12-18T16:00:28.325Z,89
2022-12-18T16:10:29.259Z,89
2022-12-18T16:20:29.632Z,88
2022-12-18T16:30:37.430Z,66
2022-12-18T16:40:30.858Z,65
2022-12-18T16:50:31.179Z,67
2022-12-18T17:00:31.295Z,69
2022-12-18T17:10:32.293Z,70
2022-12-18T17:20:33.331Z,72
2022-12-18T17:40:34.276Z,74
2022-12-18T17:50:34.962Z,75
2022-12-18T18:00:35.919Z,75
2022-12-18T18:10:36.584Z,75
2022-12-18T18:20:37.450Z,75
2022-12-18T18:30:37.668Z,75
2022-12-18T18:50:38.269Z,75
2022-12-18T19:00:39.342Z,75
2022-12-18T19:10:39.959Z,75
2022-12-18T19:20:40.667Z,75
2022-12-18T19:30:41.698Z,76
2022-12-18T19:40:41.785Z,75
2022-12-18T19:50:41.982Z,74
2022-12-18T20:00:42.206Z,73
2022-12-18T20:10:42.388Z,72
2022-12-18T20:20:42.662Z,71
2022-12-18T20:30:43.295Z,71
2022-12-18T20:40:44.252Z,71
2022-12-18T20:50:44.473Z,71
2022-12-18T21:10:44.977Z,77
2022-12-18T21:20:45.272Z,80
2022-12-18T21:30:45.693Z,83
2022-12-18T21:40:46.578Z,84
2022-12-18T21:50:47.251Z,85
2022-12-18T22:00:48.827Z,81
2022-12-18T22:10:48.535Z,81
2022-12-18T22:20:49.272Z,82
2022-12-18T22:30:49.779Z,84
2022-12-18T22:40:50.362Z,85
2022-12-18T22:50:51.012Z,86
2022-12-18T23:01:58.455Z,87
2022-12-18T23:10:52.023Z,87
2022-12-18T23:20:52.756Z,89
2022-12-18T23:30:53.055Z,89
2022-12-18T23:40:53.471Z,90
2022-12-18T23:50:54.201Z,90
